sensor_id;sensor_type;location;lat;lon;timestamp;pressure;altitude;pressure_sealevel;temperature;humidity
32933;BME280;19444;50.518;10.870;2022-12-01T00:02:05;97206.34;;;1.19;100.00
32933;BME280;19444;50.518;10.870;2022-12-01T00:05:03;97201.97;;;1.25;100.00
32933;BME280;19444;50.518;10.870;2022-12-01T00:08:00;97201.31;;;1.29;100.00
32933;BME280;19444;50.518;10.870;2022-12-01T00:11:10;97198.78;;;1.11;100.00
32933;BME280;19444;50.518;10.870;2022-12-01T00:14:10;97196.38;;;1.21;100.00
32933;BME280;19444;50.518;10.870;2022-12-01T00:17:07;97199.91;;;1.15;100.00
32933;BME280;19444;50.518;10.870;2022-12-01T00:20:05;97182.47;;;1.02;100.00
32933;BME280;19444;50.518;10.870;2022-12-01T00:23:02;97186.25;;;1.06;100.00
32933;BME280;19444;50.518;10.870;2022-12-01T00:26:04;97184.19;;;0.97;100.00
32933;BME280;19444;50.518;10.870;2022-12-01T00:29:01;97191.41;;;1.25;100.00
32933;BME280;19444;50.518;10.870;2022-12-01T00:31:58;97188.34;;;1.04;100.00
32933;BME280;19444;50.518;10.870;2022-12-01T00:34:54;97183.63;;;1.06;100.00
32933;BME280;19444;50.518;10.870;2022-12-01T00:37:51;97178.69;;;0.98;100.00
32933;BME280;19444;50.518;10.870;2022-12-01T00:40:49;97176.03;;;0.98;100.00
32933;BME280;19444;50.518;10.870;2022-12-01T00:43:46;97190.16;;;1.04;100.00
32933;BME280;19444;50.518;10.870;2022-12-01T00:46:43;97197.38;;;1.08;100.00
32933;BME280;19444;50.518;10.870;2022-12-01T00:49:40;97201.06;;;1.07;100.00
32933;BME280;19444;50.518;10.870;2022-12-01T00:52:37;97199.56;;;1.00;100.00
32933;BME280;19444;50.518;10.870;2022-12-01T00:55:34;97200.25;;;0.95;100.00
32933;BME280;19444;50.518;10.870;2022-12-01T00:58:31;97199.56;;;0.88;100.00
32933;BME280;19444;50.518;10.870;2022-12-01T01:01:28;97201.19;;;1.12;100.00
32933;BME280;19444;50.518;10.870;2022-12-01T01:04:29;97197.16;;;0.98;100.00
32933;BME280;19444;50.518;10.870;2022-12-01T01:07:26;97206.00;;;0.92;100.00
32933;BME280;19444;50.518;10.870;2022-12-01T01:10:25;97197.16;;;0.98;100.00
32933;BME280;19444;50.518;10.870;2022-12-01T01:13:22;97192.59;;;0.94;100.00
32933;BME280;19444;50.518;10.870;2022-12-01T01:16:21;97196.03;;;0.94;100.00
32933;BME280;19444;50.518;10.870;2022-12-01T01:19:18;97190.50;;;0.96;100.00
32933;BME280;19444;50.518;10.870;2022-12-01T01:22:15;97197.06;;;1.05;100.00
32933;BME280;19444;50.518;10.870;2022-12-01T01:25:11;97194.28;;;1.00;100.00
32933;BME280;19444;50.518;10.870;2022-12-01T01:28:08;97190.16;;;0.92;100.00
32933;BME280;19444;50.518;10.870;2022-12-01T01:31:07;97188.22;;;1.23;100.00
32933;BME280;19444;50.518;10.870;2022-12-01T01:34:04;97191.31;;;1.08;100.00
32933;BME280;19444;50.518;10.870;2022-12-01T01:37:01;97206.25;;;1.02;100.00
32933;BME280;19444;50.518;10.870;2022-12-01T01:39:58;97208.41;;;1.17;100.00
32933;BME280;19444;50.518;10.870;2022-12-01T01:42:55;97211.06;;;1.05;100.00
32933;BME280;19444;50.518;10.870;2022-12-01T01:45:52;97228.25;;;0.96;100.00
32933;BME280;19444;50.518;10.870;2022-12-01T01:48:56;97215.75;;;0.92;100.00
32933;BME280;19444;50.518;10.870;2022-12-01T01:51:54;97224.66;;;0.79;100.00
32933;BME280;19444;50.518;10.870;2022-12-01T01:54:54;97220.91;;;0.75;100.00
32933;BME280;19444;50.518;10.870;2022-12-01T01:57:51;97228.13;;;0.79;100.00
32933;BME280;19444;50.518;10.870;2022-12-01T02:00:48;97227.44;;;0.84;100.00
32933;BME280;19444;50.518;10.870;2022-12-01T02:03:45;97223.31;;;0.88;100.00
32933;BME280;19444;50.518;10.870;2022-12-01T02:06:43;97225.94;;;0.76;100.00
32933;BME280;19444;50.518;10.870;2022-12-01T02:09:39;97226.09;;;0.93;100.00
32933;BME280;19444;50.518;10.870;2022-12-01T02:12:52;97217.78;;;0.90;100.00
32933;BME280;19444;50.518;10.870;2022-12-01T02:30:04;97204.13;;;0.81;100.00
32933;BME280;19444;50.518;10.870;2022-12-01T02:33:35;97193.25;;;0.77;100.00
32933;BME280;19444;50.518;10.870;2022-12-01T02:36:56;97196.69;;;0.78;100.00
32933;BME280;19444;50.518;10.870;2022-12-01T02:40:02;97202.09;;;0.83;100.00
32933;BME280;19444;50.518;10.870;2022-12-01T02:46:38;97192.91;;;0.85;100.00
32933;BME280;19444;50.518;10.870;2022-12-01T02:49:49;97191.97;;;0.80;100.00
32933;BME280;19444;50.518;10.870;2022-12-01T02:52:47;97188.34;;;1.04;100.00
32933;BME280;19444;50.518;10.870;2022-12-01T02:55:54;97185.34;;;0.89;100.00
32933;BME280;19444;50.518;10.870;2022-12-01T02:58:51;97184.91;;;0.92;100.00
32933;BME280;19444;50.518;10.870;2022-12-01T03:02:30;97185.34;;;0.89;100.00
32933;BME280;19444;50.518;10.870;2022-12-01T03:06:07;97189.72;;;0.95;100.00
32933;BME280;19444;50.518;10.870;2022-12-01T03:16:32;97188.44;;;0.98;100.00
32933;BME280;19444;50.518;10.870;2022-12-01T03:19:49;97185.09;;;0.91;100.00
32933;BME280;19444;50.518;10.870;2022-12-01T03:22:59;97183.25;;;0.79;100.00
32933;BME280;19444;50.518;10.870;2022-12-01T03:25:59;97182.59;;;0.96;100.00
32933;BME280;19444;50.518;10.870;2022-12-01T03:29:07;97172.59;;;1.21;100.00
32933;BME280;19444;50.518;10.870;2022-12-01T03:35:57;97174.91;;;1.06;100.00
32933;BME280;19444;50.518;10.870;2022-12-01T03:39:00;97165.84;;;1.13;100.00
32933;BME280;19444;50.518;10.870;2022-12-01T03:45:08;97172.59;;;1.09;100.00
32933;BME280;19444;50.518;10.870;2022-12-01T03:48:07;97170.06;;;1.14;100.00
32933;BME280;19444;50.518;10.870;2022-12-01T03:51:27;97174.91;;;1.06;100.00
32933;BME280;19444;50.518;10.870;2022-12-01T04:00:56;97168.81;;;1.17;100.00
32933;BME280;19444;50.518;10.870;2022-12-01T04:03:54;97165.50;;;0.98;100.00
32933;BME280;19444;50.518;10.870;2022-12-01T04:06:52;97172.72;;;1.14;100.00
32933;BME280;19444;50.518;10.870;2022-12-01T04:09:49;97169.97;;;1.21;100.00
32933;BME280;19444;50.518;10.870;2022-12-01T04:12:48;97170.19;;;1.08;100.00
32933;BME280;19444;50.518;10.870;2022-12-01T04:15:45;97176.50;;;1.30;100.00
32933;BME280;19444;50.518;10.870;2022-12-01T04:18:42;97168.09;;;1.33;100.00
32933;BME280;19444;50.518;10.870;2022-12-01T04:21:39;97169.03;;;1.16;100.00
32933;BME280;19444;50.518;10.870;2022-12-01T04:24:36;97170.53;;;1.23;100.00
32933;BME280;19444;50.518;10.870;2022-12-01T04:27:34;97164.91;;;1.20;100.00
32933;BME280;19444;50.518;10.870;2022-12-01T04:30:31;97168.94;;;1.22;100.00
32933;BME280;19444;50.518;10.870;2022-12-01T04:33:28;97171.56;;;1.22;100.00
32933;BME280;19444;50.518;10.870;2022-12-01T04:36:28;97172.94;;;1.25;100.00
32933;BME280;19444;50.518;10.870;2022-12-01T04:39:25;97166.97;;;1.18;100.00
32933;BME280;19444;50.518;10.870;2022-12-01T04:42:22;97170.66;;;1.28;100.00
32933;BME280;19444;50.518;10.870;2022-12-01T04:45:19;97162.72;;;1.17;100.00
32933;BME280;19444;50.518;10.870;2022-12-01T04:48:16;97168.00;;;1.17;100.00
32933;BME280;19444;50.518;10.870;2022-12-01T04:51:13;97168.94;;;1.22;100.00
32933;BME280;19444;50.518;10.870;2022-12-01T04:54:11;97165.59;;;1.38;100.00
32933;BME280;19444;50.518;10.870;2022-12-01T04:57:08;97156.66;;;1.04;100.00
32933;BME280;19444;50.518;10.870;2022-12-01T05:00:06;97173.66;;;0.85;100.00
32933;BME280;19444;50.518;10.870;2022-12-01T05:03:08;97167.00;;;0.82;100.00
32933;BME280;19444;50.518;10.870;2022-12-01T05:06:15;97165.97;;;0.95;100.00
32933;BME280;19444;50.518;10.870;2022-12-01T05:09:14;97176.72;;;0.70;100.00
32933;BME280;19444;50.518;10.870;2022-12-01T05:12:13;97169.97;;;0.74;100.00
32933;BME280;19444;50.518;10.870;2022-12-01T05:15:13;97171.91;;;0.79;100.00
32933;BME280;19444;50.518;10.870;2022-12-01T05:18:10;97174.78;;;0.77;100.00
32933;BME280;19444;50.518;10.870;2022-12-01T05:21:09;97178.88;;;0.62;100.00
32933;BME280;19444;50.518;10.870;2022-12-01T05:24:08;97179.81;;;0.67;100.00
32933;BME280;19444;50.518;10.870;2022-12-01T05:27:05;97176.94;;;0.69;100.00
32933;BME280;19444;50.518;10.870;2022-12-01T05:30:02;97176.84;;;0.75;100.00
32933;BME280;19444;50.518;10.870;2022-12-01T05:33:00;97180.63;;;0.79;100.00
32933;BME280;19444;50.518;10.870;2022-12-01T05:35:57;97173.06;;;0.95;100.00
32933;BME280;19444;50.518;10.870;2022-12-01T05:38:54;97174.31;;;0.80;100.00
32933;BME280;19444;50.518;10.870;2022-12-01T05:41:51;97178.59;;;0.93;100.00
32933;BME280;19444;50.518;10.870;2022-12-01T05:44:48;97185.94;;;1.03;100.00
32933;BME280;19444;50.518;10.870;2022-12-01T05:47:45;97182.81;;;0.94;100.00
32933;BME280;19444;50.518;10.870;2022-12-01T05:50:42;97181.22;;;1.05;100.00
32933;BME280;19444;50.518;10.870;2022-12-01T05:53:39;97183.28;;;1.03;100.00
32933;BME280;19444;50.518;10.870;2022-12-01T05:56:36;97190.28;;;0.97;100.00
32933;BME280;19444;50.518;10.870;2022-12-01T05:59:33;97190.28;;;0.97;100.00
32933;BME280;19444;50.518;10.870;2022-12-01T06:02:30;97193.72;;;0.98;100.00
32933;BME280;19444;50.518;10.870;2022-12-01T06:05:27;97194.06;;;0.90;100.00
32933;BME280;19444;50.518;10.870;2022-12-01T06:08:24;97191.88;;;0.87;100.00
32933;BME280;19444;50.518;10.870;2022-12-01T06:11:21;97196.03;;;0.94;100.00
32933;BME280;19444;50.518;10.870;2022-12-01T06:14:18;97185.56;;;0.88;100.00
32933;BME280;19444;50.518;10.870;2022-12-01T06:17:15;97187.41;;;0.87;100.00
32933;BME280;19444;50.518;10.870;2022-12-01T06:20:12;97189.59;;;1.02;100.00
32933;BME280;19444;50.518;10.870;2022-12-01T06:23:09;97192.34;;;0.95;100.00
32933;BME280;19444;50.518;10.870;2022-12-01T06:26:05;97191.19;;;0.91;100.00
32933;BME280;19444;50.518;10.870;2022-12-01T06:29:02;97196.69;;;0.90;100.00
32933;BME280;19444;50.518;10.870;2022-12-01T06:31:59;97198.66;;;0.94;100.00
32933;BME280;19444;50.518;10.870;2022-12-01T06:34:56;97201.41;;;0.99;100.00
32933;BME280;19444;50.518;10.870;2022-12-01T06:37:53;97202.81;;;1.02;100.00
32933;BME280;19444;50.518;10.870;2022-12-01T06:40:50;97202.91;;;0.95;100.00
32933;BME280;19444;50.518;10.870;2022-12-01T06:43:47;97205.53;;;0.95;100.00
32933;BME280;19444;50.518;10.870;2022-12-01T06:46:44;97207.28;;;1.01;100.00
32933;BME280;19444;50.518;10.870;2022-12-01T06:49:41;97207.59;;;1.05;100.00
32933;BME280;19444;50.518;10.870;2022-12-01T06:52:38;97223.53;;;0.98;100.00
32933;BME280;19444;50.518;10.870;2022-12-01T06:55:36;97221.59;;;1.05;100.00
32933;BME280;19444;50.518;10.870;2022-12-01T06:58:33;97213.91;;;1.04;100.00
32933;BME280;19444;50.518;10.870;2022-12-01T07:01:30;97213.78;;;0.99;100.00
32933;BME280;19444;50.518;10.870;2022-12-01T07:04:28;97197.97;;;0.99;100.00
32933;BME280;19444;50.518;10.870;2022-12-01T07:07:25;97202.00;;;1.01;100.00
32933;BME280;19444;50.518;10.870;2022-12-01T07:10:22;97212.88;;;1.05;100.00
32933;BME280;19444;50.518;10.870;2022-12-01T07:13:19;97214.50;;;1.06;100.00
32933;BME280;19444;50.518;10.870;2022-12-01T07:16:16;97213.91;;;1.16;100.00
32933;BME280;19444;50.518;10.870;2022-12-01T07:19:13;97219.31;;;1.09;100.00
32933;BME280;19444;50.518;10.870;2022-12-01T07:22:10;97225.38;;;1.09;100.00
32933;BME280;19444;50.518;10.870;2022-12-01T07:25:07;97225.41;;;1.21;100.00
32933;BME280;19444;50.518;10.870;2022-12-01T07:28:04;97221.72;;;1.22;100.00
32933;BME280;19444;50.518;10.870;2022-12-01T07:34:03;97224.59;;;1.21;100.00
32933;BME280;19444;50.518;10.870;2022-12-01T07:37:01;97218.06;;;1.23;100.00
32933;BME280;19444;50.518;10.870;2022-12-01T07:39:58;97227.34;;;1.26;100.00
32933;BME280;19444;50.518;10.870;2022-12-01T07:42:55;97225.50;;;1.26;100.00
32933;BME280;19444;50.518;10.870;2022-12-01T07:45:52;97228.16;;;1.26;100.00
32933;BME280;19444;50.518;10.870;2022-12-01T07:48:49;97230.78;;;1.26;100.00
32933;BME280;19444;50.518;10.870;2022-12-01T07:51:46;97224.47;;;1.27;100.00
32933;BME280;19444;50.518;10.870;2022-12-01T07:54:43;97231.47;;;1.45;100.00
32933;BME280;19444;50.518;10.870;2022-12-01T07:57:40;97234.25;;;1.38;100.00
32933;BME280;19444;50.518;10.870;2022-12-01T08:00:37;97239.97;;;1.35;100.00
32933;BME280;19444;50.518;10.870;2022-12-01T08:03:35;97240.31;;;1.39;100.00
32933;BME280;19444;50.518;10.870;2022-12-01T08:06:32;97240.91;;;1.41;100.00
32933;BME280;19444;50.518;10.870;2022-12-01T08:09:29;97243.75;;;1.51;100.00
32933;BME280;19444;50.518;10.870;2022-12-01T08:12:26;97245.34;;;1.52;100.00
32933;BME280;19444;50.518;10.870;2022-12-01T08:15:23;97242.97;;;1.39;100.00
32933;BME280;19444;50.518;10.870;2022-12-01T08:18:20;97241.69;;;1.41;100.00
32933;BME280;19444;50.518;10.870;2022-12-01T08:21:21;97243.88;;;1.45;100.00
32933;BME280;19444;50.518;10.870;2022-12-01T08:24:18;97243.75;;;1.51;100.00
32933;BME280;19444;50.518;10.870;2022-12-01T08:27:15;97244.56;;;1.52;100.00
32933;BME280;19444;50.518;10.870;2022-12-01T08:30:13;97239.84;;;1.54;100.00
32933;BME280;19444;50.518;10.870;2022-12-01T08:33:10;97248.81;;;1.53;100.00
32933;BME280;19444;50.518;10.870;2022-12-01T08:36:07;97248.00;;;1.52;100.00
32933;BME280;19444;50.518;10.870;2022-12-01T08:39:07;97248.81;;;1.53;100.00
32933;BME280;19444;50.518;10.870;2022-12-01T08:42:04;97252.59;;;1.45;100.00
32933;BME280;19444;50.518;10.870;2022-12-01T08:45:01;97250.63;;;1.52;100.00
32933;BME280;19444;50.518;10.870;2022-12-01T08:47:58;97244.22;;;1.48;100.00
32933;BME280;19444;50.518;10.870;2022-12-01T08:54:00;97253.28;;;1.52;100.00
32933;BME280;19444;50.518;10.870;2022-12-01T08:56:57;97244.22;;;1.60;100.00
32933;BME280;19444;50.518;10.870;2022-12-01T08:59:54;97248.81;;;1.53;100.00
32933;BME280;19444;50.518;10.870;2022-12-01T09:02:51;97243.97;;;1.61;100.00
32933;BME280;19444;50.518;10.870;2022-12-01T09:05:48;97242.94;;;1.62;100.00
32933;BME280;19444;50.518;10.870;2022-12-01T09:08:45;97249.50;;;1.60;100.00
32933;BME280;19444;50.518;10.870;2022-12-01T09:11:43;97258.41;;;1.82;100.00
32933;BME280;19444;50.518;10.870;2022-12-01T09:14:42;97250.97;;;1.67;100.00
32933;BME280;19444;50.518;10.870;2022-12-01T09:17:43;97259.91;;;1.78;100.00
32933;BME280;19444;50.518;10.870;2022-12-01T09:20:40;97253.50;;;1.74;100.00
32933;BME280;19444;50.518;10.870;2022-12-01T09:23:37;97256.00;;;1.81;100.00
32933;BME280;19444;50.518;10.870;2022-12-01T09:26:35;97259.22;;;1.83;100.00
32933;BME280;19444;50.518;10.870;2022-12-01T09:29:32;97261.31;;;1.69;100.00
32933;BME280;19444;50.518;10.870;2022-12-01T09:32:29;97253.34;;;1.81;100.00
32933;BME280;19444;50.518;10.870;2022-12-01T09:35:26;97262.22;;;1.86;100.00
32933;BME280;19444;50.518;10.870;2022-12-01T09:38:24;97256.47;;;1.78;100.00
32933;BME280;19444;50.518;10.870;2022-12-01T09:41:57;97254.38;;;1.91;100.00
32933;BME280;19444;50.518;10.870;2022-12-01T09:44:53;97255.06;;;1.87;100.00
32933;BME280;19444;50.518;10.870;2022-12-01T09:47:53;97259.66;;;1.91;100.00
32933;BME280;19444;50.518;10.870;2022-12-01T09:50:51;97246.81;;;1.83;100.00
32933;BME280;19444;50.518;10.870;2022-12-01T09:53:56;97243.78;;;1.91;100.00
32933;BME280;19444;50.518;10.870;2022-12-01T09:56:54;97245.50;;;1.97;100.00
32933;BME280;19444;50.518;10.870;2022-12-01T09:59:52;97234.13;;;1.97;100.00
32933;BME280;19444;50.518;10.870;2022-12-01T10:02:56;97229.75;;;2.03;100.00
32933;BME280;19444;50.518;10.870;2022-12-01T10:06:11;97232.06;;;1.99;100.00
32933;BME280;19444;50.518;10.870;2022-12-01T10:09:48;97224.00;;;2.06;100.00
32933;BME280;19444;50.518;10.870;2022-12-01T10:12:47;97224.28;;;2.21;100.00
32933;BME280;19444;50.518;10.870;2022-12-01T10:16:13;97218.09;;;2.15;100.00
32933;BME280;19444;50.518;10.870;2022-12-01T10:19:45;97220.38;;;2.23;100.00
32933;BME280;19444;50.518;10.870;2022-12-01T10:23:01;97216.75;;;2.13;100.00
32933;BME280;19444;50.518;10.870;2022-12-01T10:26:12;97212.81;;;2.15;100.00
32933;BME280;19444;50.518;10.870;2022-12-01T10:32:25;97217.59;;;2.02;100.00
32933;BME280;19444;50.518;10.870;2022-12-01T10:35:30;97208.09;;;2.17;100.00
32933;BME280;19444;50.518;10.870;2022-12-01T10:38:35;97208.75;;;2.24;100.00
32933;BME280;19444;50.518;10.870;2022-12-01T10:41:35;97218.28;;;2.25;100.00
32933;BME280;19444;50.518;10.870;2022-12-01T10:44:34;97209.56;;;2.25;100.00
32933;BME280;19444;50.518;10.870;2022-12-01T10:47:31;97215.63;;;2.25;100.00
32933;BME280;19444;50.518;10.870;2022-12-01T10:50:28;97205.53;;;2.22;100.00
32933;BME280;19444;50.518;10.870;2022-12-01T10:53:28;97207.75;;;2.42;100.00
32933;BME280;19444;50.518;10.870;2022-12-01T10:56:26;97205.41;;;2.46;100.00
32933;BME280;19444;50.518;10.870;2022-12-01T11:00:03;97202.84;;;2.34;100.00
32933;BME280;19444;50.518;10.870;2022-12-01T11:03:02;97204.06;;;2.15;100.00
32933;BME280;19444;50.518;10.870;2022-12-01T11:06:03;97201.53;;;2.20;100.00
32933;BME280;19444;50.518;10.870;2022-12-01T11:09:05;97201.75;;;2.18;100.00
32933;BME280;19444;50.518;10.870;2022-12-01T11:12:03;97194.47;;;2.25;100.00
32933;BME280;19444;50.518;10.870;2022-12-01T11:15:01;97191.91;;;2.14;100.00
32933;BME280;19444;50.518;10.870;2022-12-01T11:18:08;97193.88;;;2.07;100.00
32933;BME280;19444;50.518;10.870;2022-12-01T11:21:25;97197.50;;;2.17;100.00
32933;BME280;19444;50.518;10.870;2022-12-01T11:24:46;97191.16;;;2.30;100.00
32933;BME280;19444;50.518;10.870;2022-12-01T11:27:52;97192.97;;;2.01;100.00
32933;BME280;19444;50.518;10.870;2022-12-01T11:31:06;97178.72;;;2.02;100.00
32933;BME280;19444;50.518;10.870;2022-12-01T11:34:05;97195.16;;;2.04;100.00
32933;BME280;19444;50.518;10.870;2022-12-01T11:37:16;97188.03;;;2.05;100.00
32933;BME280;19444;50.518;10.870;2022-12-01T11:40:51;97192.13;;;2.12;100.00
32933;BME280;19444;50.518;10.870;2022-12-01T11:43:49;97192.75;;;2.31;100.00
32933;BME280;19444;50.518;10.870;2022-12-01T11:47:18;97188.78;;;2.17;100.00
32933;BME280;19444;50.518;10.870;2022-12-01T11:50:26;97180.41;;;2.37;100.00
32933;BME280;19444;50.518;10.870;2022-12-01T11:53:35;97197.44;;;2.00;100.00
32933;BME280;19444;50.518;10.870;2022-12-01T11:56:32;97180.97;;;2.10;100.00
32933;BME280;19444;50.518;10.870;2022-12-01T11:59:29;97170.19;;;2.12;100.00
32933;BME280;19444;50.518;10.870;2022-12-01T12:02:41;97180.59;;;2.18;100.00
32933;BME280;19444;50.518;10.870;2022-12-01T12:06:11;97166.91;;;2.21;100.00
32933;BME280;19444;50.518;10.870;2022-12-01T12:09:45;97175.47;;;2.12;100.00
32933;BME280;19444;50.518;10.870;2022-12-01T12:20:14;97168.75;;;2.21;100.00
32933;BME280;19444;50.518;10.870;2022-12-01T12:23:48;97159.06;;;2.26;100.00
32933;BME280;19444;50.518;10.870;2022-12-01T12:30:20;97163.50;;;2.09;100.00
32933;BME280;19444;50.518;10.870;2022-12-01T12:39:57;97153.22;;;2.24;100.00
32933;BME280;19444;50.518;10.870;2022-12-01T12:47:21;97137.72;;;2.16;100.00
32933;BME280;19444;50.518;10.870;2022-12-01T13:00:28;97138.63;;;2.22;100.00
32933;BME280;19444;50.518;10.870;2022-12-01T13:13:54;97142.22;;;2.16;100.00
32933;BME280;19444;50.518;10.870;2022-12-01T13:16:58;97145.72;;;2.05;100.00
32933;BME280;19444;50.518;10.870;2022-12-01T13:19:59;97142.28;;;2.04;100.00
32933;BME280;19444;50.518;10.870;2022-12-01T13:22:58;97145.16;;;2.03;100.00
32933;BME280;19444;50.518;10.870;2022-12-01T13:25:57;97146.53;;;2.05;100.00
32933;BME280;19444;50.518;10.870;2022-12-01T13:28:57;97138.28;;;2.02;100.00
32933;BME280;19444;50.518;10.870;2022-12-01T13:31:54;97133.78;;;2.02;100.00
32933;BME280;19444;50.518;10.870;2022-12-01T13:34:51;97129.53;;;2.01;100.00
32933;BME280;19444;50.518;10.870;2022-12-01T13:37:48;97138.97;;;1.97;100.00
32933;BME280;19444;50.518;10.870;2022-12-01T13:40:45;97132.28;;;2.06;100.00
32933;BME280;19444;50.518;10.870;2022-12-01T13:53:36;97127.06;;;1.83;100.00
32933;BME280;19444;50.518;10.870;2022-12-01T13:56:43;97128.53;;;1.90;100.00
32933;BME280;19444;50.518;10.870;2022-12-01T14:09:45;97139.47;;;1.65;100.00
32933;BME280;19444;50.518;10.870;2022-12-01T14:12:44;97133.81;;;1.62;100.00
32933;BME280;19444;50.518;10.870;2022-12-01T14:15:42;97124.03;;;1.74;100.00
32933;BME280;19444;50.518;10.870;2022-12-01T14:18:55;97124.84;;;1.75;100.00
32933;BME280;19444;50.518;10.870;2022-12-01T14:21:56;97133.44;;;1.70;100.00
32933;BME280;19444;50.518;10.870;2022-12-01T14:24:54;97122.94;;;1.58;100.00
32933;BME280;19444;50.518;10.870;2022-12-01T14:27:55;97132.34;;;1.66;100.00
32933;BME280;19444;50.518;10.870;2022-12-01T14:33:56;97147.75;;;1.57;100.00
32933;BME280;19444;50.518;10.870;2022-12-01T14:37:17;97139.34;;;1.60;100.00
32933;BME280;19444;50.518;10.870;2022-12-01T14:40:17;97142.69;;;1.56;100.00
32933;BME280;19444;50.518;10.870;2022-12-01T14:43:15;97137.88;;;1.53;100.00
32933;BME280;19444;50.518;10.870;2022-12-01T14:46:42;97144.50;;;1.55;100.00
32933;BME280;19444;50.518;10.870;2022-12-01T14:53:34;97130.66;;;1.36;100.00
32933;BME280;19444;50.518;10.870;2022-12-01T14:56:33;97129.66;;;1.37;100.00
32933;BME280;19444;50.518;10.870;2022-12-01T14:59:32;97137.34;;;1.39;100.00
32933;BME280;19444;50.518;10.870;2022-12-01T15:02:29;97135.16;;;1.36;100.00
32933;BME280;19444;50.518;10.870;2022-12-01T15:05:28;97137.22;;;1.34;100.00
32933;BME280;19444;50.518;10.870;2022-12-01T15:08:31;97138.72;;;1.18;100.00
32933;BME280;19444;50.518;10.870;2022-12-01T15:11:56;97131.16;;;1.22;100.00
32933;BME280;19444;50.518;10.870;2022-12-01T15:14:54;97126.78;;;1.39;100.00
32933;BME280;19444;50.518;10.870;2022-12-01T15:17:53;97119.91;;;1.38;100.00
32933;BME280;19444;50.518;10.870;2022-12-01T15:21:02;97120.50;;;1.28;100.00
32933;BME280;19444;50.518;10.870;2022-12-01T15:24:04;97116.69;;;1.24;100.00
32933;BME280;19444;50.518;10.870;2022-12-01T15:27:01;97122.91;;;1.06;100.00
32933;BME280;19444;50.518;10.870;2022-12-01T15:30:00;97124.53;;;1.07;100.00
32933;BME280;19444;50.518;10.870;2022-12-01T15:33:00;97128.31;;;1.11;100.00
32933;BME280;19444;50.518;10.870;2022-12-01T15:35:59;97116.03;;;1.05;100.00
32933;BME280;19444;50.518;10.870;2022-12-01T15:38:57;97114.44;;;1.04;100.00
32933;BME280;19444;50.518;10.870;2022-12-01T15:42:03;97108.38;;;0.92;100.00
32933;BME280;19444;50.518;10.870;2022-12-01T15:45:20;97119.25;;;1.07;100.00
32933;BME280;19444;50.518;10.870;2022-12-01T15:51:26;97118.44;;;1.07;100.00
32933;BME280;19444;50.518;10.870;2022-12-01T15:54:24;97120.75;;;1.03;100.00
32933;BME280;19444;50.518;10.870;2022-12-01T15:57:23;97124.41;;;0.91;100.00
32933;BME280;19444;50.518;10.870;2022-12-01T16:00:21;97132.66;;;1.06;100.00
32933;BME280;19444;50.518;10.870;2022-12-01T16:03:18;97127.84;;;0.91;100.00
32933;BME280;19444;50.518;10.870;2022-12-01T16:06:16;97128.44;;;1.05;100.00
32933;BME280;19444;50.518;10.870;2022-12-01T16:09:32;97122.94;;;0.83;100.00
32933;BME280;19444;50.518;10.870;2022-12-01T16:12:33;97128.22;;;0.83;100.00
32933;BME280;19444;50.518;10.870;2022-12-01T16:15:42;97126.25;;;0.78;100.00
32933;BME280;19444;50.518;10.870;2022-12-01T16:18:39;97130.88;;;0.83;100.00
32933;BME280;19444;50.518;10.870;2022-12-01T16:21:48;97130.59;;;0.73;100.00
32933;BME280;19444;50.518;10.870;2022-12-01T16:24:52;97125.22;;;0.79;100.00
32933;BME280;19444;50.518;10.870;2022-12-01T16:27:53;97130.03;;;0.71;100.00
32933;BME280;19444;50.518;10.870;2022-12-01T16:30:52;97131.78;;;0.77;100.00
32933;BME280;19444;50.518;10.870;2022-12-01T16:34:00;97142.06;;;0.90;100.00
32933;BME280;19444;50.518;10.870;2022-12-01T16:37:18;97137.38;;;0.80;100.00
32933;BME280;19444;50.518;10.870;2022-12-01T16:40:15;97138.88;;;0.65;100.00
32933;BME280;19444;50.518;10.870;2022-12-01T16:43:18;97133.59;;;0.65;100.00
32933;BME280;19444;50.518;10.870;2022-12-01T16:46:16;97135.53;;;0.69;100.00
32933;BME280;19444;50.518;10.870;2022-12-01T16:49:13;97138.88;;;0.76;100.00
32933;BME280;19444;50.518;10.870;2022-12-01T16:52:10;97136.00;;;0.66;100.00
32933;BME280;19444;50.518;10.870;2022-12-01T16:55:50;97135.69;;;0.74;100.00
32933;BME280;19444;50.518;10.870;2022-12-01T16:58:48;97136.91;;;0.60;100.00
32933;BME280;19444;50.518;10.870;2022-12-01T17:01:45;97129.09;;;0.53;100.00
32933;BME280;19444;50.518;10.870;2022-12-01T17:04:42;97144.72;;;0.55;100.00
32933;BME280;19444;50.518;10.870;2022-12-01T17:07:39;97140.47;;;0.54;100.00
32933;BME280;19444;50.518;10.870;2022-12-01T17:10:45;97157.91;;;0.55;100.00
32933;BME280;19444;50.518;10.870;2022-12-01T17:13:42;97152.75;;;0.60;100.00
32933;BME280;19444;50.518;10.870;2022-12-01T17:16:39;97147.38;;;0.55;100.00
32933;BME280;19444;50.518;10.870;2022-12-01T17:19:36;97149.06;;;0.61;100.00
32933;BME280;19444;50.518;10.870;2022-12-01T17:22:33;97153.31;;;0.50;100.00
32933;BME280;19444;50.518;10.870;2022-12-01T17:25:31;97150.19;;;0.53;100.00
32933;BME280;19444;50.518;10.870;2022-12-01T17:28:28;97152.16;;;0.58;100.00
32933;BME280;19444;50.518;10.870;2022-12-01T17:31:25;97151.34;;;0.46;100.00
32933;BME280;19444;50.518;10.870;2022-12-01T17:34:22;97150.53;;;0.45;100.00
32933;BME280;19444;50.518;10.870;2022-12-01T17:37:19;97152.50;;;0.38;100.00
32933;BME280;19444;50.518;10.870;2022-12-01T17:40:17;97154.34;;;0.49;100.00
32933;BME280;19444;50.518;10.870;2022-12-01T17:43:14;97157.94;;;0.25;100.00
32933;BME280;19444;50.518;10.870;2022-12-01T17:46:11;97156.09;;;0.25;100.00
32933;BME280;19444;50.518;10.870;2022-12-01T17:49:09;97162.41;;;0.24;100.00